createdAt,value
2023-07-15T00:00:23.487Z,3.58
2023-07-15T00:02:55.418Z,3.55
2023-07-15T00:05:36.631Z,3.67
2023-07-15T00:08:05.021Z,3.90
2023-07-15T00:10:34.858Z,3.85
2023-07-15T00:13:03.443Z,3.55
2023-07-15T00:15:30.566Z,3.72
2023-07-15T00:17:59.014Z,4.03
2023-07-15T00:20:26.948Z,3.90
2023-07-15T00:22:55.627Z,3.60
2023-07-15T00:25:23.503Z,3.55
2023-07-15T00:27:51.292Z,3.78
2023-07-15T00:30:22.795Z,3.15
2023-07-15T00:32:52.724Z,3.97
2023-07-15T00:35:32.671Z,4.03
2023-07-15T00:38:00.868Z,3.45
2023-07-15T00:40:29.674Z,4.10
2023-07-15T00:43:53.109Z,3.83
2023-07-15T00:46:20.919Z,4.80
2023-07-15T00:49:30.801Z,3.83
2023-07-15T00:52:03.537Z,4.07
2023-07-15T00:54:35.323Z,4.35
2023-07-15T00:57:04.509Z,3.67
2023-07-15T00:59:32.641Z,4.22
2023-07-15T01:02:01.070Z,3.55
2023-07-15T01:04:28.801Z,4.20
2023-07-15T01:06:56.774Z,4.05
2023-07-15T01:09:25.815Z,4.38
2023-07-15T01:11:53.447Z,3.85
2023-07-15T01:14:21.207Z,3.75
2023-07-15T01:16:49.270Z,3.75
2023-07-15T01:19:20.160Z,3.63
2023-07-15T01:21:52.551Z,4.82
2023-07-15T01:24:22.158Z,4.00
2023-07-15T01:26:56.805Z,3.95
2023-07-15T01:29:24.266Z,4.28
2023-07-15T01:31:52.050Z,4.07
2023-07-15T01:34:21.108Z,4.13
2023-07-15T01:36:49.832Z,3.60
2023-07-15T01:39:18.015Z,5.13
2023-07-15T01:41:46.201Z,4.35
2023-07-15T01:44:15.774Z,4.07
2023-07-15T01:46:43.629Z,3.55
2023-07-15T01:49:11.499Z,4.28
2023-07-15T01:51:38.674Z,4.57
2023-07-15T01:54:06.374Z,4.50
2023-07-15T01:56:35.335Z,4.88
2023-07-15T01:59:02.471Z,6.13
2023-07-15T02:01:31.524Z,5.65
2023-07-15T02:03:59.614Z,5.60
2023-07-15T02:06:27.269Z,5.47
2023-07-15T02:08:56.616Z,5.95
2023-07-15T02:11:25.568Z,5.72
2023-07-15T02:13:53.005Z,5.25
2023-07-15T02:16:20.734Z,5.10
2023-07-15T02:18:51.755Z,5.07
2023-07-15T02:21:20.777Z,5.93
2023-07-15T02:23:48.815Z,5.47
2023-07-15T02:26:16.927Z,6.32
2023-07-15T02:28:44.884Z,6.65
2023-07-15T02:31:12.782Z,6.80
2023-07-15T02:33:40.478Z,6.60
2023-07-15T02:36:08.537Z,6.40
2023-07-15T02:38:36.352Z,6.95
2023-07-15T02:41:04.080Z,7.43
2023-07-15T02:43:33.302Z,7.63
2023-07-15T02:46:00.856Z,8.00
2023-07-15T02:48:28.037Z,7.13
2023-07-15T02:50:58.901Z,7.05
2023-07-15T02:53:27.543Z,7.35
2023-07-15T02:55:55.943Z,7.75
2023-07-15T02:58:24.221Z,7.43
2023-07-15T03:00:55.524Z,7.63
2023-07-15T03:03:23.335Z,7.50
2023-07-15T03:05:52.654Z,7.82
2023-07-15T03:08:21.222Z,7.63
2023-07-15T03:10:51.039Z,7.18
2023-07-15T03:13:19.602Z,6.88
2023-07-15T03:15:46.915Z,7.07
2023-07-15T03:18:14.900Z,7.20
2023-07-15T03:20:42.618Z,7.57
2023-07-15T03:23:13.067Z,7.03
2023-07-15T03:25:40.929Z,7.90
2023-07-15T03:28:08.018Z,8.45
2023-07-15T03:30:35.176Z,7.50
2023-07-15T03:33:02.990Z,8.05
2023-07-15T03:35:30.819Z,8.13
2023-07-15T03:37:58.016Z,7.63
2023-07-15T03:40:25.612Z,7.43
2023-07-15T03:42:52.769Z,7.78
2023-07-15T03:45:20.209Z,8.18
2023-07-15T03:47:47.736Z,7.85
2023-07-15T03:50:15.794Z,7.93
2023-07-15T03:52:43.472Z,7.93
2023-07-15T03:55:11.287Z,8.02
2023-07-15T03:57:39.249Z,7.85
2023-07-15T04:00:15.210Z,7.82
2023-07-15T04:02:46.353Z,7.55
2023-07-15T04:05:14.206Z,7.35
2023-07-15T04:07:42.119Z,8.10
2023-07-15T04:10:10.370Z,7.30
2023-07-15T04:12:37.906Z,7.60
2023-07-15T04:15:06.848Z,7.70
2023-07-15T04:17:34.313Z,6.97
2023-07-15T04:20:01.918Z,7.45
2023-07-15T04:22:31.067Z,7.38
2023-07-15T04:24:58.576Z,7.85
2023-07-15T04:27:25.675Z,7.53
2023-07-15T04:29:53.815Z,6.63
2023-07-15T04:32:20.908Z,7.32
2023-07-15T04:34:51.498Z,7.75
2023-07-15T04:37:19.078Z,7.25
2023-07-15T04:39:46.261Z,6.75
2023-07-15T04:42:13.849Z,7.15
2023-07-15T04:44:41.503Z,6.72
2023-07-15T04:47:09.278Z,6.63
2023-07-15T04:49:37.389Z,6.95
2023-07-15T04:52:05.520Z,6.90
2023-07-15T04:54:32.775Z,6.53
2023-07-15T04:56:59.876Z,6.10
2023-07-15T04:59:27.689Z,6.03
2023-07-15T05:01:54.909Z,5.80
2023-07-15T05:04:22.538Z,5.78
2023-07-15T05:06:50.106Z,4.88
2023-07-15T05:09:18.032Z,4.82
2023-07-15T05:11:45.955Z,4.80
2023-07-15T05:14:13.668Z,5.03
2023-07-15T05:16:44.670Z,5.03
2023-07-15T05:19:12.895Z,4.93
2023-07-15T05:21:40.013Z,4.55
2023-07-15T05:24:08.240Z,4.20
2023-07-15T05:26:36.080Z,3.47
2023-07-15T05:29:04.422Z,3.50
2023-07-15T05:31:35.495Z,3.05
2023-07-15T05:34:05.618Z,3.10
2023-07-15T05:36:33.271Z,3.30
2023-07-15T05:39:00.836Z,2.78
2023-07-15T05:41:28.981Z,2.50
2023-07-15T05:43:56.989Z,2.22
2023-07-15T05:46:24.921Z,2.95
2023-07-15T05:48:52.922Z,2.25
2023-07-15T05:51:20.415Z,2.67
2023-07-15T05:53:48.471Z,2.65
2023-07-15T05:56:16.735Z,2.15
2023-07-15T05:58:44.491Z,2.30
2023-07-15T06:01:15.616Z,2.58
2023-07-15T06:03:43.639Z,2.50
2023-07-15T06:06:11.978Z,2.58
2023-07-15T06:08:39.862Z,2.42
2023-07-15T06:11:07.629Z,2.83
2023-07-15T06:13:35.148Z,3.17
2023-07-15T06:16:03.152Z,2.90
2023-07-15T06:18:30.464Z,2.80
2023-07-15T06:20:58.260Z,2.70
2023-07-15T06:23:26.462Z,2.90
2023-07-15T06:25:53.811Z,2.58
2023-07-15T06:28:20.982Z,3.00
2023-07-15T06:30:50.554Z,2.85
2023-07-15T06:33:18.471Z,3.40
2023-07-15T06:35:46.812Z,2.95
2023-07-15T06:38:14.772Z,2.78
2023-07-15T06:40:43.399Z,2.88
2023-07-15T06:43:11.828Z,2.95
2023-07-15T06:45:40.183Z,3.00
2023-07-15T06:48:07.426Z,2.97
2023-07-15T06:50:35.162Z,3.10
2023-07-15T06:53:02.818Z,3.00
2023-07-15T06:55:30.579Z,2.70
2023-07-15T06:57:58.352Z,2.95
2023-07-15T07:00:26.324Z,2.90
2023-07-15T07:02:54.346Z,2.67
2023-07-15T07:05:22.313Z,3.03
2023-07-15T07:07:50.208Z,2.67
2023-07-15T07:10:21.661Z,2.45
2023-07-15T07:12:49.413Z,2.58
2023-07-15T07:15:17.241Z,4.15
2023-07-15T07:17:45.283Z,2.45
2023-07-15T07:20:13.393Z,2.90
2023-07-15T07:22:41.076Z,2.92
2023-07-15T07:25:09.347Z,2.90
2023-07-15T07:27:36.446Z,2.55
2023-07-15T07:30:04.497Z,3.00
2023-07-15T07:32:32.226Z,2.90
2023-07-15T07:34:59.504Z,3.20
2023-07-15T07:37:27.092Z,2.20
2023-07-15T07:39:54.927Z,2.90
2023-07-15T07:42:22.339Z,2.50
2023-07-15T07:44:50.151Z,2.40
2023-07-15T07:47:17.851Z,2.60
2023-07-15T07:49:45.560Z,2.75
2023-07-15T07:52:15.935Z,2.58
2023-07-15T07:54:43.456Z,2.50
2023-07-15T07:57:15.520Z,2.58
2023-07-15T07:59:43.414Z,2.22
2023-07-15T08:02:14.358Z,2.33
2023-07-15T08:04:45.461Z,2.63
2023-07-15T08:07:13.453Z,2.60
2023-07-15T08:09:41.127Z,2.25
2023-07-15T08:12:11.787Z,2.63
2023-07-15T08:14:38.879Z,2.55
2023-07-15T08:17:05.910Z,2.38
2023-07-15T08:19:33.408Z,2.45
2023-07-15T08:22:00.980Z,2.50
2023-07-15T08:24:28.209Z,3.20
2023-07-15T08:26:55.904Z,2.60
2023-07-15T08:29:23.105Z,2.58
2023-07-15T08:31:50.912Z,2.50
2023-07-15T08:34:21.579Z,2.97
2023-07-15T08:36:49.949Z,2.50
2023-07-15T08:39:17.357Z,2.65
2023-07-15T08:41:45.745Z,2.22
2023-07-15T08:44:15.889Z,2.30
2023-07-15T08:46:44.889Z,2.78
2023-07-15T08:49:13.422Z,2.50
2023-07-15T08:51:40.732Z,3.05
2023-07-15T08:54:09.711Z,2.75
2023-07-15T08:56:38.907Z,3.15
2023-07-15T08:59:07.921Z,2.83
2023-07-15T09:01:38.754Z,2.63
2023-07-15T09:04:06.191Z,2.63
2023-07-15T09:06:34.208Z,2.60
2023-07-15T09:09:01.560Z,2.50
2023-07-15T09:11:44.104Z,2.17
2023-07-15T09:14:18.348Z,2.92
2023-07-15T09:16:46.439Z,2.75
2023-07-15T09:19:14.765Z,2.55
2023-07-15T09:22:04.961Z,2.83
2023-07-15T09:24:34.519Z,2.90
2023-07-15T09:27:03.662Z,2.50
2023-07-15T09:29:31.724Z,2.28
2023-07-15T09:32:00.190Z,2.75
2023-07-15T09:34:28.734Z,2.45
2023-07-15T09:36:57.150Z,2.50
2023-07-15T09:39:27.858Z,2.33
2023-07-15T09:42:06.955Z,2.38
2023-07-15T09:44:45.884Z,2.25
2023-07-15T09:47:13.547Z,2.38
2023-07-15T09:49:41.107Z,2.53
2023-07-15T09:52:08.629Z,2.38
2023-07-15T09:54:37.272Z,2.78
2023-07-15T09:57:14.688Z,2.83
2023-07-15T09:59:56.289Z,2.92
2023-07-15T10:02:59.933Z,2.50
2023-07-15T10:05:28.523Z,2.30
2023-07-15T10:07:56.754Z,2.20
2023-07-15T10:10:24.540Z,2.35
2023-07-15T10:12:52.020Z,2.15
2023-07-15T10:15:20.384Z,2.35
2023-07-15T10:17:50.456Z,2.67
2023-07-15T10:20:21.651Z,2.75
2023-07-15T10:22:56.147Z,2.60
2023-07-15T10:25:23.301Z,2.53
2023-07-15T10:27:50.598Z,2.72
2023-07-15T10:30:30.592Z,2.60
2023-07-15T10:33:10.265Z,2.30
2023-07-15T10:35:44.281Z,2.63
2023-07-15T10:38:33.221Z,2.60
2023-07-15T10:41:06.120Z,2.60
2023-07-15T10:43:41.901Z,2.60
2023-07-15T10:46:17.157Z,2.13
2023-07-15T10:48:46.249Z,2.42
2023-07-15T10:51:14.430Z,2.65
2023-07-15T10:53:42.084Z,2.67
2023-07-15T10:56:12.167Z,2.55
2023-07-15T10:58:42.132Z,3.03
2023-07-15T11:01:13.417Z,2.67
2023-07-15T11:03:43.157Z,2.20
2023-07-15T11:06:12.337Z,2.63
2023-07-15T11:08:42.373Z,3.83
2023-07-15T11:11:11.982Z,2.60
2023-07-15T11:13:42.594Z,2.65
2023-07-15T11:16:10.698Z,2.53
2023-07-15T11:18:38.707Z,2.38
2023-07-15T11:21:06.665Z,2.45
2023-07-15T11:23:34.911Z,2.60
2023-07-15T11:26:11.385Z,2.50
2023-07-15T11:28:52.042Z,2.78
2023-07-15T11:31:23.350Z,2.83
2023-07-15T11:33:53.396Z,2.92
2023-07-15T11:36:24.261Z,2.40
2023-07-15T11:38:51.698Z,2.80
2023-07-15T11:41:19.349Z,2.38
2023-07-15T11:43:50.690Z,2.33
2023-07-15T11:46:18.986Z,2.30
2023-07-15T11:48:47.597Z,2.90
2023-07-15T11:51:15.437Z,2.42
2023-07-15T11:53:46.402Z,2.45
2023-07-15T11:56:33.617Z,2.28
2023-07-15T11:59:01.117Z,2.50
2023-07-15T12:01:29.168Z,3.13
2023-07-15T12:03:56.646Z,2.40
2023-07-15T12:06:27.830Z,2.08
2023-07-15T12:09:16.178Z,2.70
2023-07-15T12:11:44.381Z,2.80
2023-07-15T12:14:13.478Z,2.70
2023-07-15T12:16:41.864Z,2.60
2023-07-15T12:19:16.103Z,2.70
2023-07-15T12:21:43.449Z,2.85
2023-07-15T12:24:10.714Z,2.80
2023-07-15T12:26:38.642Z,2.60
2023-07-15T12:29:05.732Z,2.38
2023-07-15T12:31:33.472Z,2.25
2023-07-15T12:34:01.040Z,2.47
2023-07-15T12:36:28.763Z,2.75
2023-07-15T12:38:56.517Z,2.67
2023-07-15T12:41:24.444Z,2.55
2023-07-15T12:43:51.644Z,2.35
2023-07-15T12:46:19.252Z,2.20
2023-07-15T12:48:46.733Z,2.22
2023-07-15T12:51:13.818Z,2.28
2023-07-15T12:53:41.486Z,2.30
2023-07-15T12:56:13.206Z,2.33
2023-07-15T12:58:41.610Z,2.70
2023-07-15T13:01:09.611Z,2.45
2023-07-15T13:03:36.840Z,2.40
2023-07-15T13:06:05.839Z,2.40
2023-07-15T13:08:33.214Z,2.45
2023-07-15T13:11:00.284Z,2.47
2023-07-15T13:13:27.963Z,2.72
2023-07-15T13:15:55.092Z,2.13
2023-07-15T13:18:22.740Z,2.20
2023-07-15T13:20:50.062Z,2.22
2023-07-15T13:23:17.331Z,2.33
2023-07-15T13:25:44.616Z,2.33
2023-07-15T13:28:11.684Z,2.60
2023-07-15T13:30:38.785Z,2.30
2023-07-15T13:33:07.152Z,2.55
2023-07-15T13:35:34.242Z,2.28
2023-07-15T13:38:01.320Z,2.40
2023-07-15T13:40:28.407Z,2.65
2023-07-15T13:42:56.041Z,2.50
2023-07-15T13:45:23.706Z,2.33
2023-07-15T13:47:54.170Z,2.72
2023-07-15T13:50:22.067Z,2.50
2023-07-15T13:52:49.635Z,2.58
2023-07-15T13:55:18.363Z,2.50
2023-07-15T13:57:46.614Z,2.75
2023-07-15T14:00:15.010Z,2.78
2023-07-15T14:02:43.226Z,2.17
2023-07-15T14:05:11.630Z,2.30
2023-07-15T14:07:39.419Z,3.00
2023-07-15T14:10:07.775Z,2.47
2023-07-15T14:12:35.137Z,2.70
2023-07-15T14:15:02.512Z,2.85
2023-07-15T14:17:30.365Z,2.80
2023-07-15T14:19:58.242Z,2.58
2023-07-15T14:22:38.677Z,2.53
2023-07-15T14:25:10.726Z,2.88
2023-07-15T14:27:37.860Z,3.10
2023-07-15T14:30:06.600Z,2.58
2023-07-15T14:32:34.490Z,2.80
2023-07-15T14:35:01.793Z,3.25
2023-07-15T14:37:29.613Z,2.38
2023-07-15T14:39:56.754Z,3.05
2023-07-15T14:42:23.795Z,2.85
2023-07-15T14:44:51.087Z,2.90
2023-07-15T14:47:18.753Z,2.78
2023-07-15T14:49:46.906Z,2.60
2023-07-15T14:52:13.977Z,2.38
2023-07-15T14:54:41.065Z,2.47
2023-07-15T14:57:08.313Z,2.65
2023-07-15T14:59:35.898Z,2.55
2023-07-15T15:02:03.076Z,3.33
2023-07-15T15:04:30.951Z,2.70
2023-07-15T15:06:58.082Z,3.05
2023-07-15T15:09:25.710Z,2.25
2023-07-15T15:11:53.159Z,2.63
2023-07-15T15:14:24.366Z,2.50
2023-07-15T15:16:52.330Z,2.53
2023-07-15T15:19:20.335Z,2.63
2023-07-15T15:21:47.744Z,2.72
2023-07-15T15:24:15.351Z,2.42
2023-07-15T15:26:43.950Z,2.30
2023-07-15T15:29:11.053Z,2.70
2023-07-15T15:31:41.818Z,2.70
2023-07-15T15:34:09.968Z,2.70
2023-07-15T15:36:39.449Z,2.53
2023-07-15T15:39:09.632Z,2.53
2023-07-15T15:41:36.855Z,2.47
2023-07-15T15:44:05.605Z,2.40
2023-07-15T15:46:32.871Z,2.63
2023-07-15T15:48:59.967Z,2.35
2023-07-15T15:51:27.050Z,2.58
2023-07-15T15:54:06.556Z,2.40
2023-07-15T15:56:39.071Z,2.42
2023-07-15T15:59:06.995Z,2.35
2023-07-15T16:01:35.268Z,2.70
2023-07-15T16:04:03.364Z,2.20
2023-07-15T16:06:31.381Z,2.35
2023-07-15T16:08:59.300Z,2.25
2023-07-15T16:11:26.552Z,2.50
2023-07-15T16:13:58.320Z,2.65
2023-07-15T16:16:25.506Z,2.55
2023-07-15T16:18:52.680Z,2.63
2023-07-15T16:21:20.167Z,2.38
2023-07-15T16:23:47.760Z,2.22
2023-07-15T16:26:14.812Z,2.38
2023-07-15T16:28:41.902Z,2.45
2023-07-15T16:31:08.986Z,2.70
2023-07-15T16:33:36.100Z,2.63
2023-07-15T16:36:03.676Z,2.05
2023-07-15T16:38:31.143Z,2.60
2023-07-15T16:40:59.686Z,2.17
2023-07-15T16:43:27.355Z,2.73
2023-07-15T16:45:58.814Z,2.72
2023-07-15T16:48:26.654Z,3.20
2023-07-15T16:50:53.924Z,2.63
2023-07-15T16:53:24.133Z,2.60
2023-07-15T16:55:51.858Z,2.40
2023-07-15T16:58:20.679Z,3.20
2023-07-15T17:00:48.393Z,2.90
2023-07-15T17:03:16.327Z,2.22
2023-07-15T17:05:43.924Z,2.42
2023-07-15T17:08:11.494Z,2.28
2023-07-15T17:10:38.632Z,2.90
2023-07-15T17:13:06.282Z,2.80
2023-07-15T17:15:34.071Z,2.65
2023-07-15T17:18:01.182Z,2.45
2023-07-15T17:20:28.933Z,2.78
2023-07-15T17:22:56.188Z,2.80
2023-07-15T17:25:23.704Z,3.13
2023-07-15T17:27:51.543Z,3.63
2023-07-15T17:30:19.554Z,2.58
2023-07-15T17:32:47.070Z,2.47
2023-07-15T17:35:15.153Z,2.65
2023-07-15T17:37:42.855Z,2.42
2023-07-15T17:40:11.017Z,2.80
2023-07-15T17:42:38.335Z,2.30
2023-07-15T17:45:07.087Z,3.03
2023-07-15T17:47:37.317Z,2.95
2023-07-15T17:50:06.344Z,2.90
2023-07-15T17:52:33.430Z,2.60
2023-07-15T17:55:09.932Z,2.50
2023-07-15T17:57:45.009Z,2.85
2023-07-15T18:00:13.182Z,2.72
2023-07-15T18:02:40.523Z,3.10
2023-07-15T18:05:08.659Z,3.35
2023-07-15T18:07:36.378Z,2.75
2023-07-15T18:10:04.988Z,3.05
2023-07-15T18:12:32.412Z,2.67
2023-07-15T18:14:59.584Z,2.97
2023-07-15T18:17:27.146Z,2.90
2023-07-15T18:19:54.884Z,2.97
2023-07-15T18:22:22.534Z,3.20
2023-07-15T18:24:51.646Z,3.38
2023-07-15T18:27:20.638Z,3.05
2023-07-15T18:29:48.544Z,2.60
2023-07-15T18:32:16.281Z,3.17
2023-07-15T18:34:44.374Z,3.22
2023-07-15T18:37:12.385Z,3.30
2023-07-15T18:39:40.037Z,2.97
2023-07-15T18:42:07.768Z,3.72
2023-07-15T18:44:35.171Z,3.42
2023-07-15T18:47:02.780Z,3.15
2023-07-15T18:49:30.555Z,3.00
2023-07-15T18:51:58.148Z,3.58
2023-07-15T18:54:25.599Z,3.38
2023-07-15T18:56:55.309Z,3.60
2023-07-15T18:59:27.619Z,3.05
2023-07-15T19:01:55.577Z,3.22
2023-07-15T19:04:24.104Z,3.20
2023-07-15T19:06:51.581Z,3.05
2023-07-15T19:09:19.958Z,3.63
2023-07-15T19:11:50.325Z,3.90
2023-07-15T19:14:20.811Z,4.10
2023-07-15T19:16:51.757Z,3.75
2023-07-15T19:19:19.378Z,3.85
2023-07-15T19:21:47.178Z,3.50
2023-07-15T19:24:15.361Z,3.83
2023-07-15T19:26:43.125Z,3.28
2023-07-15T19:29:10.895Z,3.55
2023-07-15T19:31:38.560Z,3.97
2023-07-15T19:34:06.052Z,3.88
2023-07-15T19:36:33.583Z,3.80
2023-07-15T19:39:00.818Z,3.88
2023-07-15T19:41:28.391Z,3.70
2023-07-15T19:43:56.369Z,3.85
2023-07-15T19:46:24.293Z,3.63
2023-07-15T19:48:51.968Z,4.15
2023-07-15T19:51:27.843Z,3.80
2023-07-15T19:54:06.546Z,3.97
2023-07-15T19:56:34.099Z,3.83
2023-07-15T19:59:03.579Z,4.38
2023-07-15T20:01:36.219Z,3.88
2023-07-15T20:04:04.785Z,3.97
2023-07-15T20:06:32.425Z,4.18
2023-07-15T20:09:00.496Z,4.22
2023-07-15T20:11:28.396Z,3.70
2023-07-15T20:13:56.082Z,4.03
2023-07-15T20:16:24.009Z,4.45
2023-07-15T20:18:51.130Z,3.95
2023-07-15T20:21:18.259Z,4.22
2023-07-15T20:23:46.018Z,4.03
2023-07-15T20:26:13.946Z,4.00
2023-07-15T20:28:42.052Z,4.22
2023-07-15T20:31:09.821Z,4.57
2023-07-15T20:33:37.627Z,4.05
2023-07-15T20:36:05.120Z,4.35
2023-07-15T20:38:32.639Z,4.60
2023-07-15T20:41:02.088Z,4.43
2023-07-15T20:43:32.060Z,4.78
2023-07-15T20:45:59.928Z,4.60
2023-07-15T20:48:27.685Z,4.47
2023-07-15T20:50:55.038Z,4.95
2023-07-15T20:53:22.557Z,4.00
2023-07-15T20:55:52.804Z,4.65
2023-07-15T20:58:20.781Z,4.45
2023-07-15T21:00:54.047Z,4.55
2023-07-15T21:03:21.997Z,4.38
2023-07-15T21:06:05.773Z,4.18
2023-07-15T21:08:34.170Z,4.47
2023-07-15T21:11:03.179Z,4.63
2023-07-15T21:13:31.211Z,4.68
2023-07-15T21:16:00.617Z,4.88
2023-07-15T21:18:28.971Z,3.85
2023-07-15T21:21:02.780Z,4.68
2023-07-15T21:23:31.512Z,4.38
2023-07-15T21:26:00.400Z,4.25
2023-07-15T21:28:40.453Z,4.20
2023-07-15T21:31:08.748Z,3.65
2023-07-15T21:33:37.408Z,4.75
2023-07-15T21:36:06.174Z,3.70
2023-07-15T21:38:34.868Z,4.28
2023-07-15T21:41:04.006Z,3.90
2023-07-15T21:43:34.820Z,4.55
2023-07-15T21:46:05.657Z,4.57
2023-07-15T21:48:33.740Z,4.90
2023-07-15T21:51:02.912Z,4.72
2023-07-15T21:53:30.933Z,5.30
2023-07-15T21:55:58.766Z,5.60
2023-07-15T21:58:26.968Z,4.78
2023-07-15T22:00:59.527Z,4.38
2023-07-15T22:03:27.863Z,5.10
2023-07-15T22:05:56.345Z,4.97
2023-07-15T22:08:24.114Z,4.43
2023-07-15T22:10:51.974Z,4.95
2023-07-15T22:13:19.411Z,4.65
2023-07-15T22:15:47.021Z,4.72
2023-07-15T22:18:29.832Z,4.55
2023-07-15T22:21:07.724Z,4.80
2023-07-15T22:23:35.465Z,4.07
2023-07-15T22:26:02.950Z,4.53
2023-07-15T22:28:30.059Z,4.18
2023-07-15T22:30:57.721Z,3.75
2023-07-15T22:33:25.121Z,4.68
2023-07-15T22:35:52.552Z,4.30
2023-07-15T22:38:20.117Z,4.43
2023-07-15T22:40:47.378Z,4.20
2023-07-15T22:43:15.226Z,4.22
2023-07-15T22:45:56.217Z,4.50
2023-07-15T22:48:27.006Z,4.28
2023-07-15T22:50:54.791Z,3.85
2023-07-15T22:53:24.069Z,4.85
2023-07-15T22:55:54.750Z,4.43
2023-07-15T22:58:22.571Z,4.50
2023-07-15T23:00:55.897Z,4.95
2023-07-15T23:03:25.662Z,4.43
2023-07-15T23:05:53.446Z,4.50
2023-07-15T23:08:21.155Z,4.47
2023-07-15T23:10:48.750Z,4.50
2023-07-15T23:13:16.683Z,4.00
2023-07-15T23:15:44.347Z,4.95
2023-07-15T23:18:11.970Z,5.10
2023-07-15T23:20:39.469Z,4.43
2023-07-15T23:23:16.238Z,4.78
2023-07-15T23:25:45.104Z,4.47
2023-07-15T23:28:12.796Z,4.68
2023-07-15T23:30:49.202Z,4.57
2023-07-15T23:33:22.864Z,4.57
2023-07-15T23:35:51.723Z,4.22
2023-07-15T23:38:19.306Z,4.13
2023-07-15T23:40:47.025Z,4.15
2023-07-15T23:43:15.095Z,4.85
2023-07-15T23:45:42.880Z,4.38
2023-07-15T23:48:12.394Z,4.47
2023-07-15T23:50:40.124Z,4.40
2023-07-15T23:53:07.850Z,4.72
2023-07-15T23:55:35.071Z,4.35
2023-07-15T23:58:02.496Z,5.15
